sensor_id;sensor_type;location;lat;lon;timestamp;pressure;altitude;pressure_sealevel;temperature;humidity
4590;BME280;2307;48.448;9.216;2023-03-03T00:00:54;95519.78;;;3.07;100.00
4590;BME280;2307;48.448;9.216;2023-03-03T00:03:21;95520.22;;;3.10;100.00
4590;BME280;2307;48.448;9.216;2023-03-03T00:05:48;95522.09;;;3.16;100.00
4590;BME280;2307;48.448;9.216;2023-03-03T00:08:15;95526.19;;;3.04;100.00
4590;BME280;2307;48.448;9.216;2023-03-03T00:10:41;95522.47;;;3.13;100.00
4590;BME280;2307;48.448;9.216;2023-03-03T00:13:12;95520.09;;;3.18;100.00
4590;BME280;2307;48.448;9.216;2023-03-03T00:15:40;95523.25;;;3.14;100.00
4590;BME280;2307;48.448;9.216;2023-03-03T00:18:12;95521.13;;;3.03;100.00
4590;BME280;2307;48.448;9.216;2023-03-03T00:20:45;95519.47;;;3.16;100.00
4590;BME280;2307;48.448;9.216;2023-03-03T00:23:16;95518.34;;;3.26;100.00
4590;BME280;2307;48.448;9.216;2023-03-03T00:25:44;95523.19;;;3.29;100.00
4590;BME280;2307;48.448;9.216;2023-03-03T00:28:19;95522.81;;;3.32;100.00
4590;BME280;2307;48.448;9.216;2023-03-03T00:30:47;95527.06;;;3.33;100.00
4590;BME280;2307;48.448;9.216;2023-03-03T00:33:18;95528.41;;;3.50;100.00
4590;BME280;2307;48.448;9.216;2023-03-03T00:35:47;95530.66;;;3.32;100.00
4590;BME280;2307;48.448;9.216;2023-03-03T00:38:16;95528.53;;;3.20;100.00
4590;BME280;2307;48.448;9.216;2023-03-03T00:40:42;95530.22;;;3.28;100.00
4590;BME280;2307;48.448;9.216;2023-03-03T00:43:14;95527.06;;;3.33;100.00
4590;BME280;2307;48.448;9.216;2023-03-03T00:45:43;95524.19;;;3.28;100.00
4590;BME280;2307;48.448;9.216;2023-03-03T00:48:18;95523.38;;;3.27;100.00
4590;BME280;2307;48.448;9.216;2023-03-03T00:50:46;95525.53;;;3.23;100.00
4590;BME280;2307;48.448;9.216;2023-03-03T00:53:13;95530.66;;;3.32;100.00
4590;BME280;2307;48.448;9.216;2023-03-03T00:55:41;95523.81;;;3.31;100.00
4590;BME280;2307;48.448;9.216;2023-03-03T00:58:08;95527.16;;;3.25;100.00
4590;BME280;2307;48.448;9.216;2023-03-03T01:00:35;95527.16;;;3.25;100.00
4590;BME280;2307;48.448;9.216;2023-03-03T01:03:02;95522.63;;;3.33;100.00
4590;BME280;2307;48.448;9.216;2023-03-03T01:05:30;95528.22;;;3.30;100.00
4590;BME280;2307;48.448;9.216;2023-03-03T01:07:57;95527.81;;;3.27;100.00
4590;BME280;2307;48.448;9.216;2023-03-03T01:10:25;95527.06;;;3.33;100.00
4590;BME280;2307;48.448;9.216;2023-03-03T01:12:51;95521.09;;;3.39;100.00
4590;BME280;2307;48.448;9.216;2023-03-03T01:15:18;95518.28;;;3.40;100.00
4590;BME280;2307;48.448;9.216;2023-03-03T01:17:44;95518.34;;;3.47;100.00
4590;BME280;2307;48.448;9.216;2023-03-03T01:20:11;95513.31;;;3.45;100.00
4590;BME280;2307;48.448;9.216;2023-03-03T01:22:39;95512.63;;;3.37;100.00
4590;BME280;2307;48.448;9.216;2023-03-03T01:25:06;95512.25;;;3.40;100.00
4590;BME280;2307;48.448;9.216;2023-03-03T01:27:33;95517.97;;;3.50;100.00
4590;BME280;2307;48.448;9.216;2023-03-03T01:30:00;95516.31;;;3.42;100.00
4590;BME280;2307;48.448;9.216;2023-03-03T01:32:27;95505.94;;;3.49;100.00
4590;BME280;2307;48.448;9.216;2023-03-03T01:34:54;95509.75;;;3.53;100.00
4590;BME280;2307;48.448;9.216;2023-03-03T01:37:20;95507.09;;;3.46;100.00
4590;BME280;2307;48.448;9.216;2023-03-03T01:39:49;95510.00;;;3.37;100.00
4590;BME280;2307;48.448;9.216;2023-03-03T01:42:15;95508.97;;;3.31;100.00
4590;BME280;2307;48.448;9.216;2023-03-03T01:44:41;95506.50;;;3.23;100.00
4590;BME280;2307;48.448;9.216;2023-03-03T01:47:08;95509.22;;;3.15;100.00
4590;BME280;2307;48.448;9.216;2023-03-03T01:49:38;95507.66;;;3.20;100.00
4590;BME280;2307;48.448;9.216;2023-03-03T01:52:09;95513.31;;;3.24;100.00
4590;BME280;2307;48.448;9.216;2023-03-03T01:54:37;95507.66;;;2.99;100.00
4590;BME280;2307;48.448;9.216;2023-03-03T01:57:09;95506.66;;;3.00;100.00
4590;BME280;2307;48.448;9.216;2023-03-03T01:59:40;95507.47;;;3.01;100.00
4590;BME280;2307;48.448;9.216;2023-03-03T02:02:09;95500.44;;;3.01;100.00
4590;BME280;2307;48.448;9.216;2023-03-03T02:04:35;95504.88;;;3.01;100.00
4590;BME280;2307;48.448;9.216;2023-03-03T02:07:04;95496.59;;;2.97;100.00
4590;BME280;2307;48.448;9.216;2023-03-03T02:09:36;95495.59;;;2.98;100.00
4590;BME280;2307;48.448;9.216;2023-03-03T02:12:08;95498.94;;;2.92;100.00
4590;BME280;2307;48.448;9.216;2023-03-03T02:14:36;95493.03;;;3.05;100.00
4590;BME280;2307;48.448;9.216;2023-03-03T02:17:02;95497.06;;;2.86;100.00
4590;BME280;2307;48.448;9.216;2023-03-03T02:19:31;95500.06;;;2.83;100.00
4590;BME280;2307;48.448;9.216;2023-03-03T02:22:00;95505.91;;;2.85;100.00
4590;BME280;2307;48.448;9.216;2023-03-03T02:24:28;95502.50;;;2.85;100.00
4590;BME280;2307;48.448;9.216;2023-03-03T02:26:59;95499.69;;;2.86;100.00
4590;BME280;2307;48.448;9.216;2023-03-03T02:29:26;95492.19;;;2.62;100.00
4590;BME280;2307;48.448;9.216;2023-03-03T02:31:52;95492.28;;;2.68;100.00
4590;BME280;2307;48.448;9.216;2023-03-03T02:34:19;95496.56;;;2.76;100.00
4590;BME280;2307;48.448;9.216;2023-03-03T02:36:45;95484.03;;;2.86;100.00
4590;BME280;2307;48.448;9.216;2023-03-03T02:39:13;95484.03;;;2.86;100.00
4590;BME280;2307;48.448;9.216;2023-03-03T02:41:43;95481.88;;;2.54;100.00
4590;BME280;2307;48.448;9.216;2023-03-03T02:44:13;95478.41;;;2.47;100.00
4590;BME280;2307;48.448;9.216;2023-03-03T02:46:41;95482.94;;;2.59;100.00
4590;BME280;2307;48.448;9.216;2023-03-03T02:49:08;95478.19;;;2.63;100.00
4590;BME280;2307;48.448;9.216;2023-03-03T02:51:35;95479.53;;;2.59;100.00
4590;BME280;2307;48.448;9.216;2023-03-03T02:54:02;95476.03;;;2.52;100.00
4590;BME280;2307;48.448;9.216;2023-03-03T02:56:28;95474.78;;;2.48;100.00
4590;BME280;2307;48.448;9.216;2023-03-03T02:58:55;95466.59;;;2.51;100.00
4590;BME280;2307;48.448;9.216;2023-03-03T03:01:23;95478.03;;;2.50;100.00
4590;BME280;2307;48.448;9.216;2023-03-03T03:03:49;95468.81;;;2.54;100.00
4590;BME280;2307;48.448;9.216;2023-03-03T03:06:16;95470.34;;;2.63;100.00
4590;BME280;2307;48.448;9.216;2023-03-03T03:08:42;95475.69;;;2.76;100.00
4590;BME280;2307;48.448;9.216;2023-03-03T03:11:09;95473.59;;;2.86;100.00
4590;BME280;2307;48.448;9.216;2023-03-03T03:13:35;95479.75;;;2.79;100.00
4590;BME280;2307;48.448;9.216;2023-03-03T03:16:01;95483.78;;;2.81;100.00
4590;BME280;2307;48.448;9.216;2023-03-03T03:18:29;95484.31;;;2.91;100.00
4590;BME280;2307;48.448;9.216;2023-03-03T03:20:56;95483.41;;;2.63;100.00
4590;BME280;2307;48.448;9.216;2023-03-03T03:23:22;95490.97;;;2.29;100.00
4590;BME280;2307;48.448;9.216;2023-03-03T03:25:49;95492.59;;;2.30;100.00
4590;BME280;2307;48.448;9.216;2023-03-03T03:28:16;95495.81;;;2.32;100.00
4590;BME280;2307;48.448;9.216;2023-03-03T03:30:42;95496.19;;;2.29;100.00
4590;BME280;2307;48.448;9.216;2023-03-03T03:33:09;95500.69;;;2.35;100.00
4590;BME280;2307;48.448;9.216;2023-03-03T03:35:37;95500.50;;;2.36;100.00
4590;BME280;2307;48.448;9.216;2023-03-03T03:38:09;95504.38;;;2.40;100.00
4590;BME280;2307;48.448;9.216;2023-03-03T03:40:36;95507.78;;;2.41;100.00
4590;BME280;2307;48.448;9.216;2023-03-03T03:43:02;95510.28;;;2.49;100.00
4590;BME280;2307;48.448;9.216;2023-03-03T03:45:29;95504.72;;;2.52;100.00
4590;BME280;2307;48.448;9.216;2023-03-03T03:47:55;95506.59;;;2.58;100.00
4590;BME280;2307;48.448;9.216;2023-03-03T03:50:21;95497.34;;;2.55;100.00
4590;BME280;2307;48.448;9.216;2023-03-03T03:52:49;95502.06;;;2.31;100.00
4590;BME280;2307;48.448;9.216;2023-03-03T03:55:16;95502.31;;;2.36;100.00
4590;BME280;2307;48.448;9.216;2023-03-03T03:57:42;95504.09;;;2.50;100.00
4590;BME280;2307;48.448;9.216;2023-03-03T04:00:10;95506.41;;;2.59;100.00
4590;BME280;2307;48.448;9.216;2023-03-03T04:02:36;95507.03;;;2.61;100.00
4590;BME280;2307;48.448;9.216;2023-03-03T04:05:03;95501.72;;;2.55;100.00
4590;BME280;2307;48.448;9.216;2023-03-03T04:07:30;95506.16;;;2.40;100.00
4590;BME280;2307;48.448;9.216;2023-03-03T04:09:57;95509.59;;;2.40;100.00
4590;BME280;2307;48.448;9.216;2023-03-03T04:12:24;95512.72;;;2.36;100.00
4590;BME280;2307;48.448;9.216;2023-03-03T04:14:50;95505.19;;;2.41;100.00
4590;BME280;2307;48.448;9.216;2023-03-03T04:17:17;95506.91;;;2.34;100.00
4590;BME280;2307;48.448;9.216;2023-03-03T04:19:44;95509.13;;;2.37;100.00
4590;BME280;2307;48.448;9.216;2023-03-03T04:22:10;95505.81;;;2.43;100.00
4590;BME280;2307;48.448;9.216;2023-03-03T04:24:38;95508.31;;;2.36;100.00
4590;BME280;2307;48.448;9.216;2023-03-03T04:27:06;95515.13;;;2.52;100.00
4590;BME280;2307;48.448;9.216;2023-03-03T04:29:33;95507.88;;;2.47;100.00
4590;BME280;2307;48.448;9.216;2023-03-03T04:32:00;95502.56;;;2.55;100.00
4590;BME280;2307;48.448;9.216;2023-03-03T04:34:26;95495.25;;;2.51;100.00
4590;BME280;2307;48.448;9.216;2023-03-03T04:36:53;95497.38;;;2.41;100.00
4590;BME280;2307;48.448;9.216;2023-03-03T04:39:19;95491.88;;;2.36;100.00
4590;BME280;2307;48.448;9.216;2023-03-03T04:41:46;95502.03;;;2.45;100.00
4590;BME280;2307;48.448;9.216;2023-03-03T04:44:13;95500.38;;;2.44;100.00
4590;BME280;2307;48.448;9.216;2023-03-03T04:46:40;95508.94;;;2.53;100.00
4590;BME280;2307;48.448;9.216;2023-03-03T04:49:06;95513.22;;;2.60;100.00
4590;BME280;2307;48.448;9.216;2023-03-03T04:51:33;95516.75;;;2.53;100.00
4590;BME280;2307;48.448;9.216;2023-03-03T04:53:59;95519.81;;;2.56;100.00
4590;BME280;2307;48.448;9.216;2023-03-03T04:56:26;95519.09;;;2.48;100.00
4590;BME280;2307;48.448;9.216;2023-03-03T04:58:53;95523.50;;;2.33;100.00
4590;BME280;2307;48.448;9.216;2023-03-03T05:01:21;95520.28;;;2.31;100.00
4590;BME280;2307;48.448;9.216;2023-03-03T05:03:47;95519.56;;;2.37;100.00
4590;BME280;2307;48.448;9.216;2023-03-03T05:06:13;95524.41;;;2.40;100.00
4590;BME280;2307;48.448;9.216;2023-03-03T05:08:40;95526.13;;;2.47;100.00
4590;BME280;2307;48.448;9.216;2023-03-03T05:11:07;95523.84;;;2.59;100.00
4590;BME280;2307;48.448;9.216;2023-03-03T05:13:33;95529.69;;;2.61;100.00
4590;BME280;2307;48.448;9.216;2023-03-03T05:16:00;95530.16;;;2.50;100.00
4590;BME280;2307;48.448;9.216;2023-03-03T05:18:28;95534.28;;;2.59;100.00
4590;BME280;2307;48.448;9.216;2023-03-03T05:20:54;95529.97;;;2.51;100.00
4590;BME280;2307;48.448;9.216;2023-03-03T05:23:21;95530.34;;;2.34;100.00
4590;BME280;2307;48.448;9.216;2023-03-03T05:25:48;95539.88;;;2.27;100.00
4590;BME280;2307;48.448;9.216;2023-03-03T05:28:15;95531.63;;;2.38;100.00
4590;BME280;2307;48.448;9.216;2023-03-03T05:30:41;95530.59;;;2.39;100.00
4590;BME280;2307;48.448;9.216;2023-03-03T05:33:09;95534.47;;;2.43;100.00
4590;BME280;2307;48.448;9.216;2023-03-03T05:38:27;95540.22;;;2.53;100.00
4590;BME280;2307;48.448;9.216;2023-03-03T05:40:53;95550.19;;;2.49;100.00
4590;BME280;2307;48.448;9.216;2023-03-03T05:43:20;95539.56;;;2.51;100.00
4590;BME280;2307;48.448;9.216;2023-03-03T05:45:46;95549.22;;;2.36;100.00
4590;BME280;2307;48.448;9.216;2023-03-03T05:48:13;95553.16;;;2.32;100.00
4590;BME280;2307;48.448;9.216;2023-03-03T05:50:46;95554.34;;;2.29;100.00
4590;BME280;2307;48.448;9.216;2023-03-03T05:53:12;95544.91;;;2.43;100.00
4590;BME280;2307;48.448;9.216;2023-03-03T05:55:40;95547.88;;;2.40;100.00
4590;BME280;2307;48.448;9.216;2023-03-03T05:58:07;95547.78;;;2.33;100.00
4590;BME280;2307;48.448;9.216;2023-03-03T06:00:33;95545.25;;;2.40;100.00
4590;BME280;2307;48.448;9.216;2023-03-03T06:03:00;95550.84;;;2.37;100.00
4590;BME280;2307;48.448;9.216;2023-03-03T06:05:26;95550.38;;;2.33;100.00
4590;BME280;2307;48.448;9.216;2023-03-03T06:07:52;95559.28;;;2.39;100.00
4590;BME280;2307;48.448;9.216;2023-03-03T06:10:19;95555.31;;;2.43;100.00
4590;BME280;2307;48.448;9.216;2023-03-03T06:12:47;95562.41;;;2.49;100.00
4590;BME280;2307;48.448;9.216;2023-03-03T06:15:13;95566.13;;;2.40;100.00
4590;BME280;2307;48.448;9.216;2023-03-03T06:17:39;95567.75;;;2.41;100.00
4590;BME280;2307;48.448;9.216;2023-03-03T06:20:06;95570.50;;;2.39;100.00
4590;BME280;2307;48.448;9.216;2023-03-03T06:22:33;95559.00;;;2.48;100.00
4590;BME280;2307;48.448;9.216;2023-03-03T06:24:59;95557.38;;;2.62;100.00
4590;BME280;2307;48.448;9.216;2023-03-03T06:27:26;95570.13;;;2.72;100.00
4590;BME280;2307;48.448;9.216;2023-03-03T06:29:54;95572.00;;;2.78;100.00
4590;BME280;2307;48.448;9.216;2023-03-03T06:32:20;95574.19;;;2.74;100.00
4590;BME280;2307;48.448;9.216;2023-03-03T06:34:47;95573.00;;;2.77;100.00
4590;BME280;2307;48.448;9.216;2023-03-03T06:37:13;95580.03;;;2.61;100.00
4590;BME280;2307;48.448;9.216;2023-03-03T06:39:40;95579.22;;;2.61;100.00
4590;BME280;2307;48.448;9.216;2023-03-03T06:42:06;95588.06;;;2.60;100.00
4590;BME280;2307;48.448;9.216;2023-03-03T06:44:33;95585.78;;;2.57;100.00
4590;BME280;2307;48.448;9.216;2023-03-03T06:47:01;95598.72;;;2.65;100.00
4590;BME280;2307;48.448;9.216;2023-03-03T06:49:28;95598.13;;;2.63;100.00
4590;BME280;2307;48.448;9.216;2023-03-03T06:51:54;95597.31;;;2.62;100.00
4590;BME280;2307;48.448;9.216;2023-03-03T06:54:23;95598.03;;;2.56;100.00
4590;BME280;2307;48.448;9.216;2023-03-03T06:56:52;95586.59;;;2.72;100.00
4590;BME280;2307;48.448;9.216;2023-03-03T06:59:21;95595.94;;;2.81;100.00
4590;BME280;2307;48.448;9.216;2023-03-03T07:01:48;95599.69;;;2.93;100.00
4590;BME280;2307;48.448;9.216;2023-03-03T07:04:21;95596.09;;;2.94;100.00
4590;BME280;2307;48.448;9.216;2023-03-03T07:06:49;95605.06;;;3.06;100.00
4590;BME280;2307;48.448;9.216;2023-03-03T07:09:18;95610.00;;;3.16;100.00
4590;BME280;2307;48.448;9.216;2023-03-03T07:11:45;95617.75;;;3.09;100.00
4590;BME280;2307;48.448;9.216;2023-03-03T07:14:13;95621.53;;;3.07;100.00
4590;BME280;2307;48.448;9.216;2023-03-03T07:16:40;95622.44;;;2.99;100.00
4590;BME280;2307;48.448;9.216;2023-03-03T07:19:08;95631.19;;;2.77;100.00
4590;BME280;2307;48.448;9.216;2023-03-03T07:21:41;95622.91;;;2.88;100.00
4590;BME280;2307;48.448;9.216;2023-03-03T07:24:12;95624.25;;;2.84;100.00
4590;BME280;2307;48.448;9.216;2023-03-03T07:26:43;95623.06;;;3.01;100.00
4590;BME280;2307;48.448;9.216;2023-03-03T07:29:14;95623.94;;;3.08;100.00
4590;BME280;2307;48.448;9.216;2023-03-03T07:31:41;95622.72;;;3.04;100.00
4590;BME280;2307;48.448;9.216;2023-03-03T07:34:13;95628.63;;;2.98;100.00
4590;BME280;2307;48.448;9.216;2023-03-03T07:36:43;95623.94;;;3.08;100.00
4590;BME280;2307;48.448;9.216;2023-03-03T07:39:17;95627.91;;;3.19;100.00
4590;BME280;2307;48.448;9.216;2023-03-03T07:41:44;95636.91;;;3.16;100.00
4590;BME280;2307;48.448;9.216;2023-03-03T07:44:12;95627.78;;;3.27;100.00
4590;BME280;2307;48.448;9.216;2023-03-03T07:46:44;95633.44;;;3.31;100.00
4590;BME280;2307;48.448;9.216;2023-03-03T07:49:16;95631.03;;;3.29;100.00
4590;BME280;2307;48.448;9.216;2023-03-03T07:51:47;95637.16;;;3.21;100.00
4590;BME280;2307;48.448;9.216;2023-03-03T07:54:15;95636.50;;;3.34;100.00
4590;BME280;2307;48.448;9.216;2023-03-03T07:56:46;95645.28;;;3.48;100.00
4590;BME280;2307;48.448;9.216;2023-03-03T07:59:16;95641.69;;;3.49;100.00
4590;BME280;2307;48.448;9.216;2023-03-03T08:01:45;95641.34;;;3.37;100.00
4590;BME280;2307;48.448;9.216;2023-03-03T08:04:17;95644.91;;;3.51;100.00
4590;BME280;2307;48.448;9.216;2023-03-03T08:06:50;95656.63;;;3.55;100.00
4590;BME280;2307;48.448;9.216;2023-03-03T08:12:15;95655.25;;;3.80;100.00
4590;BME280;2307;48.448;9.216;2023-03-03T08:14:43;95647.91;;;3.69;100.00
4590;BME280;2307;48.448;9.216;2023-03-03T08:17:13;95641.88;;;3.68;100.00
4590;BME280;2307;48.448;9.216;2023-03-03T08:19:40;95644.25;;;3.85;100.00
4590;BME280;2307;48.448;9.216;2023-03-03T08:22:11;95641.31;;;3.94;100.00
4590;BME280;2307;48.448;9.216;2023-03-03T08:24:38;95643.44;;;3.84;100.00
4590;BME280;2307;48.448;9.216;2023-03-03T08:27:05;95643.56;;;3.76;100.00
4590;BME280;2307;48.448;9.216;2023-03-03T08:29:31;95637.34;;;3.98;100.00
4590;BME280;2307;48.448;9.216;2023-03-03T08:31:58;95633.03;;;3.91;100.00
4590;BME280;2307;48.448;9.216;2023-03-03T08:34:24;95630.75;;;3.81;100.00
4590;BME280;2307;48.448;9.216;2023-03-03T08:36:50;95638.66;;;4.09;100.00
4590;BME280;2307;48.448;9.216;2023-03-03T08:39:18;95641.59;;;4.27;100.00
4590;BME280;2307;48.448;9.216;2023-03-03T08:41:45;95638.66;;;4.15;100.00
4590;BME280;2307;48.448;9.216;2023-03-03T08:44:11;95647.28;;;4.09;100.00
4590;BME280;2307;48.448;9.216;2023-03-03T08:46:38;95644.75;;;4.22;100.00
4590;BME280;2307;48.448;9.216;2023-03-03T08:49:04;95646.50;;;4.15;100.00
4590;BME280;2307;48.448;9.216;2023-03-03T08:51:31;95642.91;;;4.44;100.00
4590;BME280;2307;48.448;9.216;2023-03-03T08:53:59;95647.44;;;4.57;100.00
4590;BME280;2307;48.448;9.216;2023-03-03T08:56:26;95655.88;;;4.52;100.00
4590;BME280;2307;48.448;9.216;2023-03-03T08:58:53;95648.66;;;4.61;100.00
4590;BME280;2307;48.448;9.216;2023-03-03T09:01:19;95657.88;;;4.50;100.00
4590;BME280;2307;48.448;9.216;2023-03-03T09:03:46;95651.13;;;4.41;100.00
4590;BME280;2307;48.448;9.216;2023-03-03T09:06:12;95646.69;;;4.69;100.00
4590;BME280;2307;48.448;9.216;2023-03-03T09:08:39;95646.47;;;4.64;100.00
4590;BME280;2307;48.448;9.216;2023-03-03T09:11:08;95657.63;;;4.79;100.00
4590;BME280;2307;48.448;9.216;2023-03-03T09:13:36;95659.44;;;4.79;100.00
4590;BME280;2307;48.448;9.216;2023-03-03T09:16:06;95655.38;;;5.11;100.00
4590;BME280;2307;48.448;9.216;2023-03-03T09:18:34;95655.81;;;5.14;100.00
4590;BME280;2307;48.448;9.216;2023-03-03T09:21:01;95655.56;;;5.03;100.00
4590;BME280;2307;48.448;9.216;2023-03-03T09:23:33;95659.28;;;5.21;100.00
4590;BME280;2307;48.448;9.216;2023-03-03T09:28:46;95671.72;;;5.13;100.00
4590;BME280;2307;48.448;9.216;2023-03-03T09:31:16;95668.06;;;5.07;100.00
4590;BME280;2307;48.448;9.216;2023-03-03T09:33:46;95674.13;;;5.14;100.00
4590;BME280;2307;48.448;9.216;2023-03-03T09:36:17;95673.41;;;5.33;100.00
4590;BME280;2307;48.448;9.216;2023-03-03T09:38:45;95673.03;;;5.36;100.00
4590;BME280;2307;48.448;9.216;2023-03-03T09:41:21;95676.94;;;5.54;100.00
4590;BME280;2307;48.448;9.216;2023-03-03T09:44:10;95683.63;;;5.15;100.00
4590;BME280;2307;48.448;9.216;2023-03-03T09:46:43;95684.34;;;5.03;100.00
4590;BME280;2307;48.448;9.216;2023-03-03T09:49:16;95686.78;;;5.11;100.00
4590;BME280;2307;48.448;9.216;2023-03-03T09:51:51;95685.53;;;5.41;100.00
4590;BME280;2307;48.448;9.216;2023-03-03T09:54:26;95690.81;;;5.48;100.00
4590;BME280;2307;48.448;9.216;2023-03-03T09:56:59;95688.53;;;5.31;100.00
4590;BME280;2307;48.448;9.216;2023-03-03T09:59:34;95689.69;;;5.22;100.00
4590;BME280;2307;48.448;9.216;2023-03-03T10:02:18;95685.06;;;5.24;100.00
4590;BME280;2307;48.448;9.216;2023-03-03T10:07:36;95695.50;;;5.65;100.00
4590;BME280;2307;48.448;9.216;2023-03-03T10:12:47;95684.19;;;5.58;100.00
4590;BME280;2307;48.448;9.216;2023-03-03T10:15:25;95690.88;;;5.61;100.00
4590;BME280;2307;48.448;9.216;2023-03-03T10:17:53;95686.88;;;5.84;96.26
4590;BME280;2307;48.448;9.216;2023-03-03T10:20:36;95693.13;;;5.77;96.70
4590;BME280;2307;48.448;9.216;2023-03-03T10:23:05;95691.16;;;5.85;94.34
4590;BME280;2307;48.448;9.216;2023-03-03T10:25:38;95689.91;;;5.81;96.22
4590;BME280;2307;48.448;9.216;2023-03-03T10:28:18;95684.63;;;5.68;94.80
4590;BME280;2307;48.448;9.216;2023-03-03T10:30:52;95687.09;;;5.83;95.51
4590;BME280;2307;48.448;9.216;2023-03-03T10:33:24;95690.31;;;5.85;95.30
4590;BME280;2307;48.448;9.216;2023-03-03T10:36:00;95689.78;;;6.16;93.41
4590;BME280;2307;48.448;9.216;2023-03-03T10:38:31;95698.09;;;6.32;89.52
4590;BME280;2307;48.448;9.216;2023-03-03T10:41:04;95691.84;;;6.40;88.44
4590;BME280;2307;48.448;9.216;2023-03-03T10:43:42;95697.28;;;6.65;91.34
4590;BME280;2307;48.448;9.216;2023-03-03T10:46:20;95705.75;;;6.93;85.77
4590;BME280;2307;48.448;9.216;2023-03-03T10:51:39;95698.47;;;6.82;85.67
4590;BME280;2307;48.448;9.216;2023-03-03T10:54:15;95702.53;;;6.84;86.53
4590;BME280;2307;48.448;9.216;2023-03-03T10:56:47;95698.28;;;6.90;86.78
4590;BME280;2307;48.448;9.216;2023-03-03T10:59:23;95702.47;;;7.17;89.17
4590;BME280;2307;48.448;9.216;2023-03-03T11:01:57;95698.66;;;7.07;84.66
4590;BME280;2307;48.448;9.216;2023-03-03T11:04:24;95700.09;;;6.96;88.63
4590;BME280;2307;48.448;9.216;2023-03-03T11:06:57;95703.66;;;7.21;86.98
4590;BME280;2307;48.448;9.216;2023-03-03T11:12:18;95699.06;;;7.61;85.96
4590;BME280;2307;48.448;9.216;2023-03-03T11:14:50;95701.59;;;7.36;85.49
4590;BME280;2307;48.448;9.216;2023-03-03T11:17:19;95694.41;;;7.70;86.45
4590;BME280;2307;48.448;9.216;2023-03-03T11:19:53;95692.28;;;8.29;84.20
4590;BME280;2307;48.448;9.216;2023-03-03T11:22:27;95689.78;;;8.34;77.89
4590;BME280;2307;48.448;9.216;2023-03-03T11:25:00;95678.97;;;8.74;73.78
4590;BME280;2307;48.448;9.216;2023-03-03T11:27:40;95690.19;;;8.87;66.85
4590;BME280;2307;48.448;9.216;2023-03-03T11:30:14;95680.63;;;9.11;67.53
4590;BME280;2307;48.448;9.216;2023-03-03T11:32:47;95677.72;;;9.19;65.48
4590;BME280;2307;48.448;9.216;2023-03-03T11:35:18;95682.94;;;9.26;68.33
4590;BME280;2307;48.448;9.216;2023-03-03T11:37:46;95684.19;;;9.41;65.77
4590;BME280;2307;48.448;9.216;2023-03-03T11:40:19;95687.00;;;9.40;60.53
4590;BME280;2307;48.448;9.216;2023-03-03T11:42:52;95682.69;;;9.45;61.73
4590;BME280;2307;48.448;9.216;2023-03-03T11:45:24;95682.81;;;9.69;63.12
4590;BME280;2307;48.448;9.216;2023-03-03T11:47:56;95677.03;;;9.78;61.21
4590;BME280;2307;48.448;9.216;2023-03-03T11:50:25;95684.53;;;9.93;60.45
4590;BME280;2307;48.448;9.216;2023-03-03T11:52:58;95681.03;;;10.29;59.28
4590;BME280;2307;48.448;9.216;2023-03-03T11:55:30;95677.72;;;10.33;57.34
4590;BME280;2307;48.448;9.216;2023-03-03T11:58:03;95675.19;;;10.27;55.84
4590;BME280;2307;48.448;9.216;2023-03-03T12:00:34;95671.38;;;10.34;56.86
4590;BME280;2307;48.448;9.216;2023-03-03T12:03:23;95666.91;;;10.35;56.35
4590;BME280;2307;48.448;9.216;2023-03-03T12:05:54;95671.28;;;10.29;57.95
4590;BME280;2307;48.448;9.216;2023-03-03T12:08:36;95671.38;;;10.34;57.44
4590;BME280;2307;48.448;9.216;2023-03-03T12:11:08;95677.16;;;10.43;57.26
4590;BME280;2307;48.448;9.216;2023-03-03T12:13:41;95672.06;;;10.00;59.33
4590;BME280;2307;48.448;9.216;2023-03-03T12:16:14;95683.03;;;10.15;58.88
4590;BME280;2307;48.448;9.216;2023-03-03T12:18:51;95675.53;;;10.12;55.96
4590;BME280;2307;48.448;9.216;2023-03-03T12:21:22;95679.56;;;10.33;55.27
4590;BME280;2307;48.448;9.216;2023-03-03T12:23:56;95676.31;;;10.31;55.54
4590;BME280;2307;48.448;9.216;2023-03-03T12:26:24;95680.75;;;10.60;54.40
4590;BME280;2307;48.448;9.216;2023-03-03T12:28:52;95668.69;;;10.52;54.60
4590;BME280;2307;48.448;9.216;2023-03-03T12:31:22;95667.28;;;10.38;56.72
4590;BME280;2307;48.448;9.216;2023-03-03T12:33:56;95663.16;;;10.42;54.77
4590;BME280;2307;48.448;9.216;2023-03-03T12:36:46;95661.34;;;10.54;54.55
4590;BME280;2307;48.448;9.216;2023-03-03T12:39:18;95653.84;;;10.40;56.36
4590;BME280;2307;48.448;9.216;2023-03-03T12:41:49;95649.72;;;9.54;61.35
4590;BME280;2307;48.448;9.216;2023-03-03T12:44:20;95657.91;;;9.65;61.02
4590;BME280;2307;48.448;9.216;2023-03-03T12:46:52;95651.78;;;9.52;61.98
4590;BME280;2307;48.448;9.216;2023-03-03T12:49:23;95654.03;;;9.97;58.90
4590;BME280;2307;48.448;9.216;2023-03-03T12:52:01;95647.50;;;10.29;57.26
4590;BME280;2307;48.448;9.216;2023-03-03T12:54:37;95645.56;;;9.95;57.17
4590;BME280;2307;48.448;9.216;2023-03-03T12:57:10;95643.59;;;10.20;55.97
4590;BME280;2307;48.448;9.216;2023-03-03T12:59:40;95644.94;;;10.52;55.86
4590;BME280;2307;48.448;9.216;2023-03-03T13:02:19;95644.47;;;10.55;54.19
4590;BME280;2307;48.448;9.216;2023-03-03T13:04:54;95642.16;;;11.05;56.08
4590;BME280;2307;48.448;9.216;2023-03-03T13:07:22;95639.41;;;11.00;54.51
4590;BME280;2307;48.448;9.216;2023-03-03T13:09:57;95638.28;;;10.96;55.04
4590;BME280;2307;48.448;9.216;2023-03-03T13:12:33;95635.78;;;11.41;53.73
4590;BME280;2307;48.448;9.216;2023-03-03T13:15:02;95637.38;;;11.54;51.72
4590;BME280;2307;48.448;9.216;2023-03-03T13:17:30;95636.66;;;11.58;49.82
4590;BME280;2307;48.448;9.216;2023-03-03T13:20:02;95634.81;;;11.99;50.24
4590;BME280;2307;48.448;9.216;2023-03-03T13:22:36;95637.31;;;12.05;51.25
4590;BME280;2307;48.448;9.216;2023-03-03T13:25:06;95644.16;;;11.90;50.47
4590;BME280;2307;48.448;9.216;2023-03-03T13:27:35;95641.25;;;12.03;48.41
4590;BME280;2307;48.448;9.216;2023-03-03T13:30:04;95643.19;;;11.79;50.61
4590;BME280;2307;48.448;9.216;2023-03-03T13:32:41;95633.97;;;11.82;51.48
4590;BME280;2307;48.448;9.216;2023-03-03T13:35:14;95636.75;;;12.03;49.40
4590;BME280;2307;48.448;9.216;2023-03-03T13:37:43;95637.56;;;11.76;54.74
4590;BME280;2307;48.448;9.216;2023-03-03T13:40:14;95640.53;;;11.79;49.59
4590;BME280;2307;48.448;9.216;2023-03-03T13:42:42;95635.47;;;11.26;50.49
4590;BME280;2307;48.448;9.216;2023-03-03T13:45:12;95630.81;;;11.45;51.18
4590;BME280;2307;48.448;9.216;2023-03-03T13:47:42;95635.97;;;11.51;52.15
4590;BME280;2307;48.448;9.216;2023-03-03T13:50:17;95638.84;;;10.87;56.22
4590;BME280;2307;48.448;9.216;2023-03-03T13:52:47;95624.53;;;11.34;54.33